Time;durP1;ratioP1;P1;durP2;ratioP2;P2;SDS_P1;SDS_P2;PMS_P1;PMS_P2;Temp;Humidity;BMP_temperature;BMP_pressure;BME280_temperature;BME280_humidity;BME280_pressure;Samples;Min_cycle;Max_cycle;Signal;HPM_P1;HPM_P2
2022/03/28 00:00:29;;;;;;;13.90;4.30;;;;;;;;;;4989321;28;20726;-61
2022/03/28 00:02:56;;;;;;;14.37;4.70;;;;;;;;;;4988438;28;20478;-60
2022/03/28 00:05:22;;;;;;;9.77;4.33;;;;;;;;;;4988246;28;20444;-61
2022/03/28 00:07:49;;;;;;;11.40;4.63;;;;;;;;;;4988708;28;20973;-60
2022/03/28 00:10:16;;;;;;;15.03;4.20;;;;;;;;;;4988874;28;20189;-60
2022/03/28 00:12:42;;;;;;;13.53;4.60;;;;;;;;;;4988924;28;20292;-60
2022/03/28 00:15:09;;;;;;;10.53;4.37;;;;;;;;;;4988728;28;20474;-60
2022/03/28 00:17:36;;;;;;;13.80;5.27;;;;;;;;;;4988527;28;20463;-60
2022/03/28 00:20:03;;;;;;;9.50;4.03;;;;;;;;;;4987402;28;20203;-60
2022/03/28 00:22:30;;;;;;;12.27;3.93;;;;;;;;;;4988770;28;20220;-61
2022/03/28 00:24:57;;;;;;;16.17;4.97;;;;;;;;;;4988526;28;20199;-60
2022/03/28 00:27:24;;;;;;;10.73;4.37;;;;;;;;;;4992407;28;20603;-61
2022/03/28 00:29:50;;;;;;;14.97;5.10;;;;;;;;;;4992485;28;20284;-60
2022/03/28 00:32:17;;;;;;;13.00;4.80;;;;;;;;;;4974548;28;20803;-61
2022/03/28 00:34:44;;;;;;;14.87;4.67;;;;;;;;;;4991859;28;20292;-60
2022/03/28 00:37:11;;;;;;;7.70;3.27;;;;;;;;;;4992390;28;21151;-60
2022/03/28 00:39:37;;;;;;;12.27;5.00;;;;;;;;;;4992079;28;20478;-60
2022/03/28 00:42:04;;;;;;;10.67;4.80;;;;;;;;;;4992130;28;20223;-60
2022/03/28 00:44:31;;;;;;;9.70;4.63;;;;;;;;;;4992120;28;20553;-60
2022/03/28 00:46:58;;;;;;;11.77;4.93;;;;;;;;;;4974494;28;20953;-61
2022/03/28 00:49:25;;;;;;;10.63;3.83;;;;;;;;;;4991941;28;20656;-61
2022/03/28 00:51:52;;;;;;;13.00;4.30;;;;;;;;;;4992071;28;20428;-60
2022/03/28 00:54:18;;;;;;;11.83;4.57;;;;;;;;;;4992324;28;20267;-60
2022/03/28 00:56:46;;;;;;;13.43;4.67;;;;;;;;;;4991686;28;20792;-60
2022/03/28 00:59:13;;;;;;;8.07;4.00;;;;;;;;;;4991973;28;20653;-60
2022/03/28 01:01:40;;;;;;;10.13;4.70;;;;;;;;;;4973923;28;20220;-60
2022/03/28 01:40:17;;;;;;;11.67;4.77;;;;;;;;;;4971179;28;20231;-61
2022/03/28 01:42:45;;;;;;;10.33;4.43;;;;;;;;;;4954830;28;20508;-60
2022/03/28 01:45:14;;;;;;;9.13;4.57;;;;;;;;;;4971808;28;20471;-60
2022/03/28 01:47:41;;;;;;;12.57;5.07;;;;;;;;;;4971345;28;20425;-61
2022/03/28 01:50:07;;;;;;;9.53;4.60;;;;;;;;;;4971499;28;20433;-60
2022/03/28 01:52:34;;;;;;;10.80;4.63;;;;;;;;;;4971699;28;20523;-60
2022/03/28 01:55:01;;;;;;;12.63;4.40;;;;;;;;;;4971464;28;20437;-60
2022/03/28 01:57:27;;;;;;;10.67;4.37;;;;;;;;;;4971694;28;20439;-60
2022/03/28 02:00:13;;;;;;;6.87;3.50;;;;;;;;;;4971461;28;20429;-60
2022/03/28 02:02:40;;;;;;;14.07;4.13;;;;;;;;;;4961660;28;20483;-60
2022/03/28 02:05:11;;;;;;;9.10;4.13;;;;;;;;;;4990537;28;20428;-60
2022/03/28 02:07:39;;;;;;;8.13;3.73;;;;;;;;;;4990852;28;20518;-60
2022/03/28 02:10:09;;;;;;;9.10;3.80;;;;;;;;;;4989523;28;20284;-60
2022/03/28 02:12:36;;;;;;;11.70;3.83;;;;;;;;;;4990644;28;20799;-61
2022/03/28 02:15:03;;;;;;;10.40;4.17;;;;;;;;;;4990484;28;20185;-60
2022/03/28 02:17:31;;;;;;;14.33;4.27;;;;;;;;;;4976453;28;20530;-60
2022/03/28 02:19:58;;;;;;;10.73;4.03;;;;;;;;;;4971059;28;20552;-60
2022/03/28 02:22:25;;;;;;;10.53;3.23;;;;;;;;;;4970476;28;20500;-60
2022/03/28 02:24:52;;;;;;;10.53;3.43;;;;;;;;;;4970900;28;21027;-60
2022/03/28 02:27:36;;;;;;;6.53;2.70;;;;;;;;;;4971194;28;21148;-60
2022/03/28 02:30:06;;;;;;;10.65;4.30;;;;;;;;;;4969742;28;20453;-60
2022/03/28 02:32:33;;;;;;;7.80;3.00;;;;;;;;;;4970491;28;20197;-60
2022/03/28 02:35:00;;;;;;;10.07;3.63;;;;;;;;;;4970701;28;20447;-60
2022/03/28 02:37:26;;;;;;;5.73;2.93;;;;;;;;;;4970498;28;20461;-60
2022/03/28 02:39:53;;;;;;;9.23;3.43;;;;;;;;;;4972965;28;20459;-61
2022/03/28 02:42:22;;;;;;;8.73;3.40;;;;;;;;;;4982340;28;20471;-61
2022/03/28 02:44:49;;;;;;;7.03;2.97;;;;;;;;;;4963063;28;20469;-61
2022/03/28 02:47:35;;;;;;;7.37;3.03;;;;;;;;;;4962622;28;20444;-60
2022/03/28 02:50:03;;;;;;;9.87;3.37;;;;;;;;;;4963436;28;20495;-60
2022/03/28 02:52:30;;;;;;;8.20;3.13;;;;;;;;;;4961632;28;20444;-61
2022/03/28 02:54:56;;;;;;;7.97;3.27;;;;;;;;;;4963320;28;20940;-60
2022/03/28 02:57:23;;;;;;;8.07;3.70;;;;;;;;;;4963830;28;20453;-60
2022/03/28 02:59:50;;;;;;;10.00;3.67;;;;;;;;;;4964495;28;20871;-60
2022/03/28 03:02:17;;;;;;;7.73;3.37;;;;;;;;;;4962640;28;20515;-58
2022/03/28 03:04:44;;;;;;;11.40;3.57;;;;;;;;;;4963290;28;20449;-60
2022/03/28 03:07:10;;;;;;;11.37;3.77;;;;;;;;;;4961972;28;20444;-60
2022/03/28 03:09:37;;;;;;;8.10;3.33;;;;;;;;;;4963447;28;20884;-60
2022/03/28 03:12:04;;;;;;;9.23;3.83;;;;;;;;;;4962138;28;20519;-62
2022/03/28 03:14:50;;;;;;;11.90;2.90;;;;;;;;;;4963300;28;20459;-60
2022/03/28 03:17:16;;;;;;;8.73;3.67;;;;;;;;;;4962397;28;20925;-60
2022/03/28 03:19:44;;;;;;;5.60;2.90;;;;;;;;;;4962561;28;20445;-61
2022/03/28 03:22:13;;;;;;;8.00;3.87;;;;;;;;;;4961968;28;20475;-60
2022/03/28 03:24:41;;;;;;;10.37;4.10;;;;;;;;;;4961698;28;20452;-61
2022/03/28 03:27:08;;;;;;;9.23;3.13;;;;;;;;;;4962792;28;20487;-60
2022/03/28 03:29:35;;;;;;;9.33;3.40;;;;;;;;;;4960629;28;20524;-61
2022/03/28 03:32:03;;;;;;;7.30;3.43;;;;;;;;;;4961601;28;20519;-60
2022/03/28 03:34:30;;;;;;;9.57;3.60;;;;;;;;;;4963376;28;20433;-61
2022/03/28 03:36:57;;;;;;;10.00;3.10;;;;;;;;;;4961811;28;20506;-61
2022/03/28 03:39:26;;;;;;;9.13;3.90;;;;;;;;;;4961843;28;20441;-60
2022/03/28 03:41:54;;;;;;;7.90;4.37;;;;;;;;;;4963183;28;20579;-60
2022/03/28 03:44:21;;;;;;;9.60;4.20;;;;;;;;;;4962321;28;20976;-61
2022/03/28 03:46:48;;;;;;;10.87;3.90;;;;;;;;;;4962618;28;20501;-60
2022/03/28 03:49:18;;;;;;;9.33;3.03;;;;;;;;;;4957537;28;20473;-59
2022/03/28 03:51:45;;;;;;;10.23;4.07;;;;;;;;;;4961140;28;20825;-60
2022/03/28 03:54:12;;;;;;;8.57;4.37;;;;;;;;;;4962586;28;20455;-58
2022/03/28 03:56:57;;;;;;;9.03;4.17;;;;;;;;;;4961430;28;20477;-61
2022/03/28 03:59:24;;;;;;;13.00;3.80;;;;;;;;;;4961383;28;20540;-61
2022/03/28 04:01:51;;;;;;;14.40;4.93;;;;;;;;;;4962548;28;20976;-61
2022/03/28 04:04:18;;;;;;;9.17;4.37;;;;;;;;;;4963206;28;20544;-61
2022/03/28 04:06:45;;;;;;;11.27;3.23;;;;;;;;;;4961778;28;20495;-60
2022/03/28 04:09:12;;;;;;;11.47;3.30;;;;;;;;;;4968502;28;20968;-62
2022/03/28 04:11:39;;;;;;;10.63;4.00;;;;;;;;;;4962026;28;20444;-61
2022/03/28 04:14:07;;;;;;;9.87;4.53;;;;;;;;;;4961658;28;20453;-61
2022/03/28 04:16:52;;;;;;;11.10;4.13;;;;;;;;;;4962554;28;20440;-61
2022/03/28 04:19:19;;;;;;;9.77;4.73;;;;;;;;;;4962127;28;20437;-61
2022/03/28 04:21:48;;;;;;;12.43;4.40;;;;;;;;;;4955957;28;20445;-61
2022/03/28 04:24:15;;;;;;;9.70;4.00;;;;;;;;;;4967892;28;20440;-60
2022/03/28 04:26:42;;;;;;;10.60;4.23;;;;;;;;;;4969183;28;21324;-61
2022/03/28 04:29:28;;;;;;;10.40;4.33;;;;;;;;;;4979425;28;20433;-59
2022/03/28 04:31:55;;;;;;;8.73;2.60;;;;;;;;;;4969022;28;20440;-59
2022/03/28 04:34:40;;;;;;;8.77;3.90;;;;;;;;;;4969110;28;20425;-59
2022/03/28 04:37:06;;;;;;;6.20;4.37;;;;;;;;;;4968930;28;20433;-61
2022/03/28 04:39:33;;;;;;;9.70;4.70;;;;;;;;;;4970749;28;20476;-59
2022/03/28 04:42:00;;;;;;;11.90;4.20;;;;;;;;;;4949408;29;20430;-60
2022/03/28 04:44:26;;;;;;;7.73;3.70;;;;;;;;;;4964066;28;20482;-59
2022/03/28 04:46:53;;;;;;;13.27;4.93;;;;;;;;;;4986555;28;20470;-59
2022/03/28 04:49:20;;;;;;;11.57;7.07;;;;;;;;;;4963530;28;20448;-60
2022/03/28 04:51:47;;;;;;;9.33;4.80;;;;;;;;;;4972452;28;20500;-59
2022/03/28 04:54:32;;;;;;;11.97;4.90;;;;;;;;;;4950056;28;20414;-59
2022/03/28 04:56:59;;;;;;;9.63;4.90;;;;;;;;;;4949510;28;21290;-60
2022/03/28 04:59:28;;;;;;;12.50;4.73;;;;;;;;;;4972127;28;20435;-59
2022/03/28 05:01:55;;;;;;;7.30;3.53;;;;;;;;;;4988468;28;20931;-59
2022/03/28 05:04:22;;;;;;;11.97;4.63;;;;;;;;;;4984042;28;20492;-59
2022/03/28 05:06:49;;;;;;;10.80;4.50;;;;;;;;;;4969341;28;20433;-59
2022/03/28 05:09:15;;;;;;;11.67;4.40;;;;;;;;;;4969106;28;20488;-59
2022/03/28 05:11:42;;;;;;;10.17;4.00;;;;;;;;;;4969901;28;20429;-59
2022/03/28 05:14:09;;;;;;;7.20;3.93;;;;;;;;;;4971930;28;20447;-59
2022/03/28 05:16:36;;;;;;;8.10;3.53;;;;;;;;;;4987069;28;20432;-59
2022/03/28 05:19:03;;;;;;;5.77;3.17;;;;;;;;;;4971797;28;20766;-59
2022/03/28 05:21:30;;;;;;;11.27;3.97;;;;;;;;;;4971313;28;20464;-59
2022/03/28 05:23:57;;;;;;;7.10;3.10;;;;;;;;;;4971674;28;21068;-60
2022/03/28 05:26:24;;;;;;;15.13;6.10;;;;;;;;;;4971894;28;20440;-60
2022/03/28 05:28:51;;;;;;;14.60;6.10;;;;;;;;;;4971962;28;20444;-59
2022/03/28 05:31:17;;;;;;;26.33;9.33;;;;;;;;;;4971599;28;20447;-59
2022/03/28 05:33:44;;;;;;;16.53;7.10;;;;;;;;;;4971964;28;20473;-59
2022/03/28 05:36:11;;;;;;;15.50;6.97;;;;;;;;;;4972047;28;20464;-59
2022/03/28 05:38:37;;;;;;;9.13;4.60;;;;;;;;;;4970653;28;20272;-59
2022/03/28 05:41:05;;;;;;;6.80;3.67;;;;;;;;;;4971151;28;20547;-59
2022/03/28 05:43:32;;;;;;;6.97;3.70;;;;;;;;;;4971673;28;20488;-59
2022/03/28 05:45:59;;;;;;;9.60;3.27;;;;;;;;;;4971583;28;20177;-59
2022/03/28 05:48:26;;;;;;;6.20;3.23;;;;;;;;;;4971756;28;20448;-59
2022/03/28 05:50:52;;;;;;;5.73;2.90;;;;;;;;;;4971593;28;20233;-62
2022/03/28 05:53:19;;;;;;;6.30;3.33;;;;;;;;;;4971393;28;20260;-59
2022/03/28 05:55:46;;;;;;;9.67;3.03;;;;;;;;;;4971422;28;20276;-59
2022/03/28 05:58:13;;;;;;;5.83;2.90;;;;;;;;;;4971524;28;20225;-59
2022/03/28 06:00:39;;;;;;;10.20;3.30;;;;;;;;;;4971506;28;20194;-59
2022/03/28 06:03:06;;;;;;;8.07;3.20;;;;;;;;;;4971203;28;20201;-59
2022/03/28 06:05:50;;;;;;;8.73;3.23;;;;;;;;;;4971593;28;20166;-59
2022/03/28 06:08:18;;;;;;;7.07;3.83;;;;;;;;;;4971140;28;20603;-59
2022/03/28 06:10:44;;;;;;;7.93;3.97;;;;;;;;;;4971274;28;20676;-59
2022/03/28 06:13:12;;;;;;;9.70;3.80;;;;;;;;;;4971237;28;20216;-59
2022/03/28 06:15:39;;;;;;;14.50;5.87;;;;;;;;;;4971262;28;20272;-59
2022/03/28 06:18:06;;;;;;;6.00;2.20;;;;;;;;;;4969733;28;20200;-59
2022/03/28 06:20:33;;;;;;;7.30;3.10;;;;;;;;;;4970984;28;20264;-60
2022/03/28 06:23:02;;;;;;;7.53;2.70;;;;;;;;;;4969599;28;20313;-59
2022/03/28 06:25:29;;;;;;;6.87;3.00;;;;;;;;;;4971242;28;20200;-59
2022/03/28 06:27:59;;;;;;;9.60;3.50;;;;;;;;;;4970727;28;20202;-59
2022/03/28 06:30:26;;;;;;;8.50;3.50;;;;;;;;;;4971163;28;20193;-59
2022/03/28 06:32:53;;;;;;;5.77;3.40;;;;;;;;;;4970759;28;20197;-59
2022/03/28 06:35:20;;;;;;;7.53;3.83;;;;;;;;;;4970531;28;20219;-59
2022/03/28 06:37:52;;;;;;;6.93;3.53;;;;;;;;;;4970781;28;20189;-59
2022/03/28 06:40:20;;;;;;;10.00;3.30;;;;;;;;;;4957620;28;20230;-59
2022/03/28 06:42:46;;;;;;;9.73;4.43;;;;;;;;;;4951615;29;20705;-59
2022/03/28 06:45:14;;;;;;;7.43;3.57;;;;;;;;;;4951322;29;20199;-59
2022/03/28 06:47:58;;;;;;;10.13;4.30;;;;;;;;;;4950922;28;20265;-59
2022/03/28 06:50:45;;;;;;;7.87;3.03;;;;;;;;;;4951205;28;20252;-59
2022/03/28 06:53:30;;;;;;;7.17;3.77;;;;;;;;;;4951221;28;20185;-59
2022/03/28 06:55:56;;;;;;;4.30;2.23;;;;;;;;;;4949872;29;20198;-60
2022/03/28 06:58:41;;;;;;;5.83;3.37;;;;;;;;;;4950793;28;20233;-59
2022/03/28 07:01:09;;;;;;;5.40;3.30;;;;;;;;;;4951209;28;20614;-60
2022/03/28 07:03:35;;;;;;;7.90;3.30;;;;;;;;;;4951307;29;20384;-60
2022/03/28 07:06:02;;;;;;;7.33;3.43;;;;;;;;;;4950651;28;20934;-60
2022/03/28 07:08:29;;;;;;;6.10;3.27;;;;;;;;;;4950606;29;20210;-62
2022/03/28 07:11:13;;;;;;;6.90;3.40;;;;;;;;;;4951380;28;20182;-60
2022/03/28 07:13:40;;;;;;;23.53;4.10;;;;;;;;;;4950796;29;20198;-60
2022/03/28 07:16:06;;;;;;;4.93;2.70;;;;;;;;;;4949297;29;20560;-60
2022/03/28 07:18:34;;;;;;;6.43;2.77;;;;;;;;;;4951100;29;20202;-60
2022/03/28 07:21:00;;;;;;;7.57;3.00;;;;;;;;;;4950573;29;20213;-60
2022/03/28 07:23:28;;;;;;;8.23;3.00;;;;;;;;;;4950792;28;20210;-60
2022/03/28 07:25:56;;;;;;;7.67;3.23;;;;;;;;;;4950846;29;20186;-60
2022/03/28 07:28:22;;;;;;;4.90;2.10;;;;;;;;;;4950232;28;20205;-60
2022/03/28 07:30:49;;;;;;;7.40;3.03;;;;;;;;;;4950919;28;20194;-60
2022/03/28 07:33:16;;;;;;;9.37;3.33;;;;;;;;;;4951060;28;20635;-59
2022/03/28 07:35:45;;;;;;;7.67;3.30;;;;;;;;;;4949415;28;20562;-62
2022/03/28 07:38:29;;;;;;;7.80;2.17;;;;;;;;;;4950662;28;20526;-60
2022/03/28 07:40:56;;;;;;;5.43;2.23;;;;;;;;;;4967705;28;20266;-60
2022/03/28 07:43:40;;;;;;;6.87;3.50;;;;;;;;;;4969494;28;20208;-59
2022/03/28 07:46:07;;;;;;;6.07;2.70;;;;;;;;;;4969281;28;20232;-59
2022/03/28 07:48:34;;;;;;;6.03;2.43;;;;;;;;;;4968923;28;20197;-60
2022/03/28 07:51:00;;;;;;;7.10;2.87;;;;;;;;;;4969440;28;20196;-60
2022/03/28 07:53:28;;;;;;;13.83;3.30;;;;;;;;;;4969550;28;20197;-60
2022/03/28 07:55:54;;;;;;;5.67;3.10;;;;;;;;;;4984468;28;20289;-60
2022/03/28 07:58:21;;;;;;;11.83;3.10;;;;;;;;;;4969571;28;21015;-60
2022/03/28 08:00:48;;;;;;;3.73;2.43;;;;;;;;;;4969396;28;20286;-60
2022/03/28 08:03:15;;;;;;;7.97;3.03;;;;;;;;;;4969493;28;20248;-60
2022/03/28 08:05:42;;;;;;;8.80;2.90;;;;;;;;;;4983982;28;20197;-60
2022/03/28 08:08:09;;;;;;;7.13;2.70;;;;;;;;;;4969420;28;20687;-60
2022/03/28 08:10:36;;;;;;;2.03;1.60;;;;;;;;;;4969660;28;20399;-60
2022/03/28 08:13:03;;;;;;;6.30;2.80;;;;;;;;;;4968986;28;20317;-60
2022/03/28 08:15:30;;;;;;;9.17;3.20;;;;;;;;;;4969797;28;20480;-60
2022/03/28 08:17:57;;;;;;;5.23;2.60;;;;;;;;;;4969225;28;20221;-60
2022/03/28 08:20:24;;;;;;;5.97;2.30;;;;;;;;;;4968825;28;20598;-60
2022/03/28 08:22:51;;;;;;;5.77;2.80;;;;;;;;;;4968100;28;20201;-59
2022/03/28 08:25:18;;;;;;;6.53;2.97;;;;;;;;;;4969499;28;20197;-60
2022/03/28 08:27:46;;;;;;;6.70;2.13;;;;;;;;;;4969191;28;20209;-60
2022/03/28 08:30:12;;;;;;;6.43;2.50;;;;;;;;;;4969173;28;20225;-60
2022/03/28 08:32:40;;;;;;;5.57;2.07;;;;;;;;;;4969188;28;20205;-60
2022/03/28 08:35:07;;;;;;;4.83;2.60;;;;;;;;;;4969218;28;20197;-60
2022/03/28 08:37:34;;;;;;;21.20;3.70;;;;;;;;;;4969331;28;20232;-60
2022/03/28 08:40:03;;;;;;;30.17;3.60;;;;;;;;;;4958578;28;20238;-60
2022/03/28 08:42:33;;;;;;;10.63;3.00;;;;;;;;;;4964360;28;20203;-60
2022/03/28 08:44:59;;;;;;;11.90;2.70;;;;;;;;;;4949679;29;20214;-60
2022/03/28 08:47:26;;;;;;;8.60;3.03;;;;;;;;;;4951851;28;20198;-60
2022/03/28 08:49:53;;;;;;;12.50;2.90;;;;;;;;;;4952218;29;20225;-60
2022/03/28 08:52:24;;;;;;;14.27;2.93;;;;;;;;;;4953306;28;20202;-60
2022/03/28 08:55:12;;;;;;;7.13;3.40;;;;;;;;;;4952123;28;20205;-60
2022/03/28 08:57:38;;;;;;;8.00;2.90;;;;;;;;;;4953740;29;20190;-61
2022/03/28 09:00:06;;;;;;;8.30;3.40;;;;;;;;;;4952995;28;20206;-61
2022/03/28 09:02:39;;;;;;;7.03;2.93;;;;;;;;;;4953237;29;20198;-60
2022/03/28 09:05:06;;;;;;;5.80;2.23;;;;;;;;;;4952814;29;20232;-63
2022/03/28 09:07:33;;;;;;;6.70;3.10;;;;;;;;;;4953225;29;20270;-60
2022/03/28 09:10:00;;;;;;;8.93;3.07;;;;;;;;;;4953134;29;20210;-60
2022/03/28 09:12:27;;;;;;;8.83;3.33;;;;;;;;;;4953372;28;20197;-60
2022/03/28 09:14:58;;;;;;;10.07;2.97;;;;;;;;;;4953062;29;20190;-61
2022/03/28 09:17:25;;;;;;;7.13;2.60;;;;;;;;;;4952737;28;20202;-60
2022/03/28 09:19:54;;;;;;;10.90;3.23;;;;;;;;;;4952729;28;20209;-61
2022/03/28 09:22:23;;;;;;;3.90;2.63;;;;;;;;;;4952958;29;20194;-60
2022/03/28 09:24:50;;;;;;;12.13;2.87;;;;;;;;;;4953104;28;20222;-60
2022/03/28 09:27:18;;;;;;;10.20;2.77;;;;;;;;;;4953204;28;20205;-59
2022/03/28 09:29:51;;;;;;;7.33;2.60;;;;;;;;;;4952355;28;20194;-60
2022/03/28 09:32:22;;;;;;;5.87;2.50;;;;;;;;;;4952520;29;20205;-59
2022/03/28 09:35:04;;;;;;;7.50;2.30;;;;;;;;;;4952652;29;20202;-59
2022/03/28 09:37:31;;;;;;;8.53;2.50;;;;;;;;;;4952630;28;20201;-60
2022/03/28 09:39:58;;;;;;;8.40;3.10;;;;;;;;;;4960928;28;20228;-59
2022/03/28 09:42:24;;;;;;;6.20;2.87;;;;;;;;;;4972061;28;20252;-59
2022/03/28 09:45:17;;;;;;;4.53;2.80;;;;;;;;;;4971936;28;20213;-59
2022/03/28 09:47:53;;;;;;;5.90;3.50;;;;;;;;;;4970995;28;20570;-59
2022/03/28 09:50:26;;;;;;;8.23;2.90;;;;;;;;;;4971484;28;20228;-59
2022/03/28 09:52:52;;;;;;;6.40;2.43;;;;;;;;;;4971548;28;20240;-59
2022/03/28 09:55:19;;;;;;;6.73;2.70;;;;;;;;;;4971396;28;20193;-60
2022/03/28 09:57:46;;;;;;;7.63;2.80;;;;;;;;;;4971289;28;20197;-59
2022/03/28 10:00:13;;;;;;;4.77;2.33;;;;;;;;;;4972042;28;20197;-59
2022/03/28 10:02:40;;;;;;;6.13;1.97;;;;;;;;;;4971113;28;20208;-60
2022/03/28 10:05:07;;;;;;;9.87;2.70;;;;;;;;;;4986121;28;20700;-59
2022/03/28 10:07:34;;;;;;;3.97;2.33;;;;;;;;;;4971494;28;20200;-60
2022/03/28 10:10:01;;;;;;;6.70;2.70;;;;;;;;;;4971105;28;20282;-60
2022/03/28 10:12:28;;;;;;;6.93;3.07;;;;;;;;;;4986431;28;20680;-60
2022/03/28 10:15:00;;;;;;;8.77;2.97;;;;;;;;;;4971389;28;20221;-60
2022/03/28 10:17:29;;;;;;;6.90;3.20;;;;;;;;;;4970854;28;20225;-59
2022/03/28 10:19:56;;;;;;;9.13;3.63;;;;;;;;;;4971152;28;20189;-60
2022/03/28 10:22:26;;;;;;;5.73;2.83;;;;;;;;;;4970637;28;20205;-60
2022/03/28 10:24:53;;;;;;;10.30;2.60;;;;;;;;;;4985977;28;20277;-59
2022/03/28 10:27:20;;;;;;;28.20;3.53;;;;;;;;;;4986107;28;20641;-59
2022/03/28 10:29:47;;;;;;;13.20;3.60;;;;;;;;;;4985815;28;20192;-59
2022/03/28 10:32:15;;;;;;;12.70;3.97;;;;;;;;;;4970755;28;20194;-59
2022/03/28 10:34:43;;;;;;;13.63;3.40;;;;;;;;;;4970703;28;20252;-61
2022/03/28 10:37:24;;;;;;;6.07;2.63;;;;;;;;;;4970781;28;20281;-59
2022/03/28 10:39:52;;;;;;;7.30;2.80;;;;;;;;;;4961789;28;20237;-59
2022/03/28 10:42:26;;;;;;;6.30;2.73;;;;;;;;;;4950651;29;20197;-60
2022/03/28 10:45:05;;;;;;;11.97;2.70;;;;;;;;;;4951448;29;20221;-59
2022/03/28 10:47:51;;;;;;;12.93;2.70;;;;;;;;;;4949873;28;20207;-60
2022/03/28 10:50:20;;;;;;;15.73;3.63;;;;;;;;;;4951496;29;20208;-59
2022/03/28 10:53:17;;;;;;;8.17;2.20;;;;;;;;;;4951130;29;20546;-59
2022/03/28 10:56:02;;;;;;;7.47;3.20;;;;;;;;;;4934692;29;20927;-59
2022/03/28 10:58:30;;;;;;;7.90;2.80;;;;;;;;;;4951225;29;20193;-59
2022/03/28 11:01:11;;;;;;;6.97;2.33;;;;;;;;;;4951084;28;20187;-60
2022/03/28 11:03:39;;;;;;;12.67;3.00;;;;;;;;;;4951346;28;20196;-60
2022/03/28 11:06:05;;;;;;;6.33;2.43;;;;;;;;;;4949411;28;20908;-60
2022/03/28 11:08:33;;;;;;;9.23;3.13;;;;;;;;;;4950744;28;20249;-60
2022/03/28 11:11:14;;;;;;;3.67;2.30;;;;;;;;;;4950459;29;21020;-60
2022/03/28 11:13:41;;;;;;;4.23;2.23;;;;;;;;;;4950603;29;20196;-60
2022/03/28 11:16:19;;;;;;;8.63;2.40;;;;;;;;;;4950635;29;20273;-60
2022/03/28 11:19:04;;;;;;;5.57;2.90;;;;;;;;;;4950895;29;20630;-60
2022/03/28 11:21:31;;;;;;;5.43;2.90;;;;;;;;;;4950758;28;20221;-60
2022/03/28 11:24:08;;;;;;;13.40;3.97;;;;;;;;;;4949962;28;20268;-60
2022/03/28 11:26:39;;;;;;;6.27;2.70;;;;;;;;;;4950365;29;20301;-60
2022/03/28 11:29:06;;;;;;;11.47;4.07;;;;;;;;;;4950482;29;20194;-60
2022/03/28 11:31:34;;;;;;;12.53;3.70;;;;;;;;;;4950482;29;20198;-60
2022/03/28 11:34:01;;;;;;;7.40;3.53;;;;;;;;;;4950605;29;20194;-60
2022/03/28 11:36:30;;;;;;;8.07;3.67;;;;;;;;;;4949454;28;20237;-59
2022/03/28 11:38:59;;;;;;;6.77;3.60;;;;;;;;;;4951590;28;20216;-60
2022/03/28 11:41:25;;;;;;;12.00;3.40;;;;;;;;;;4983847;28;20225;-59
2022/03/28 11:43:53;;;;;;;16.43;4.10;;;;;;;;;;4984428;28;20297;-60
2022/03/28 11:46:20;;;;;;;21.83;5.33;;;;;;;;;;4969275;28;20685;-60
2022/03/28 11:48:51;;;;;;;10.00;4.07;;;;;;;;;;4970162;28;20552;-60
2022/03/28 11:51:17;;;;;;;11.40;3.87;;;;;;;;;;4969935;28;20215;-60
2022/03/28 11:53:44;;;;;;;11.03;3.73;;;;;;;;;;4969300;28;20193;-60
2022/03/28 11:56:11;;;;;;;34.00;5.70;;;;;;;;;;4969527;28;20712;-60
2022/03/28 11:58:40;;;;;;;10.70;4.30;;;;;;;;;;4984012;28;20264;-60
2022/03/28 12:01:10;;;;;;;8.40;4.00;;;;;;;;;;4969062;28;20193;-60
2022/03/28 12:03:38;;;;;;;7.07;3.43;;;;;;;;;;4984686;28;20220;-60
2022/03/28 12:06:05;;;;;;;10.17;4.13;;;;;;;;;;4984162;28;20190;-60
2022/03/28 12:08:32;;;;;;;9.43;4.30;;;;;;;;;;4969263;28;20724;-60
2022/03/28 12:10:58;;;;;;;16.70;4.67;;;;;;;;;;4969377;28;20225;-60
2022/03/28 12:13:42;;;;;;;6.60;4.10;;;;;;;;;;4969081;28;20900;-60
2022/03/28 12:16:09;;;;;;;8.90;4.20;;;;;;;;;;4969376;28;20227;-60
2022/03/28 12:18:53;;;;;;;9.27;4.23;;;;;;;;;;4969547;28;20181;-60
2022/03/28 12:21:20;;;;;;;10.93;3.47;;;;;;;;;;4971709;28;20296;-60
2022/03/28 12:24:07;;;;;;;7.30;3.53;;;;;;;;;;4985578;28;20201;-60
2022/03/28 12:26:41;;;;;;;10.23;4.53;;;;;;;;;;4973327;28;20573;-59
2022/03/28 12:29:09;;;;;;;6.73;3.50;;;;;;;;;;4973178;28;20225;-60
2022/03/28 12:31:36;;;;;;;4.77;3.30;;;;;;;;;;4973026;28;20201;-60
2022/03/28 12:34:03;;;;;;;16.03;5.50;;;;;;;;;;4972734;28;20312;-60
2022/03/28 12:36:30;;;;;;;15.17;3.47;;;;;;;;;;4973503;28;20343;-60
2022/03/28 12:39:01;;;;;;;8.23;4.23;;;;;;;;;;4971389;28;20190;-60
2022/03/28 12:41:28;;;;;;;14.33;5.70;;;;;;;;;;4953599;29;20240;-60
2022/03/28 12:43:54;;;;;;;14.90;5.40;;;;;;;;;;4953409;28;20285;-60
2022/03/28 12:46:21;;;;;;;6.03;2.93;;;;;;;;;;4953233;29;20253;-59
2022/03/28 12:48:50;;;;;;;22.20;5.77;;;;;;;;;;4952861;28;20542;-59
2022/03/28 12:51:24;;;;;;;13.70;5.27;;;;;;;;;;4953556;28;20198;-59
2022/03/28 12:53:51;;;;;;;9.07;3.73;;;;;;;;;;4953353;29;20199;-59
2022/03/28 12:56:19;;;;;;;16.87;4.80;;;;;;;;;;4953575;28;20566;-60
2022/03/28 12:58:52;;;;;;;14.10;5.50;;;;;;;;;;4952944;29;20198;-60
2022/03/28 13:01:20;;;;;;;10.17;5.17;;;;;;;;;;4953082;29;20206;-60
2022/03/28 13:03:47;;;;;;;8.23;3.80;;;;;;;;;;4953677;29;20198;-60
2022/03/28 13:06:16;;;;;;;8.53;3.93;;;;;;;;;;4953234;29;20214;-61
2022/03/28 13:08:43;;;;;;;7.73;4.23;;;;;;;;;;4952878;28;20542;-60
2022/03/28 13:11:10;;;;;;;12.60;5.03;;;;;;;;;;4953221;29;20260;-60
2022/03/28 13:13:38;;;;;;;11.73;5.20;;;;;;;;;;4953276;29;20190;-60
2022/03/28 13:16:06;;;;;;;9.37;4.63;;;;;;;;;;4952884;29;20186;-60
2022/03/28 13:18:34;;;;;;;7.27;3.67;;;;;;;;;;4953215;29;20661;-60
2022/03/28 13:21:00;;;;;;;10.90;5.80;;;;;;;;;;4952739;28;20205;-60
2022/03/28 13:23:46;;;;;;;7.57;3.60;;;;;;;;;;4951396;28;20265;-60
2022/03/28 13:26:17;;;;;;;11.27;5.40;;;;;;;;;;4952948;29;20224;-60
2022/03/28 13:29:17;;;;;;;8.87;3.57;;;;;;;;;;4952919;28;20178;-60
2022/03/28 13:31:44;;;;;;;7.53;3.73;;;;;;;;;;4952080;28;20362;-60
2022/03/28 13:34:10;;;;;;;5.67;2.93;;;;;;;;;;4952406;29;20218;-60
2022/03/28 13:36:37;;;;;;;7.27;3.43;;;;;;;;;;4953071;29;20197;-60
2022/03/28 13:39:04;;;;;;;9.97;4.87;;;;;;;;;;4954801;28;20721;-59
2022/03/28 13:41:31;;;;;;;8.87;4.80;;;;;;;;;;4971731;28;20328;-60
2022/03/28 13:43:57;;;;;;;10.33;3.70;;;;;;;;;;4972009;28;20280;-59
2022/03/28 13:46:24;;;;;;;8.93;4.53;;;;;;;;;;4971207;28;20561;-59
2022/03/28 13:48:52;;;;;;;11.10;5.00;;;;;;;;;;4972150;28;20248;-59
2022/03/28 13:51:19;;;;;;;9.70;4.63;;;;;;;;;;4971983;28;20245;-60
2022/03/28 13:53:53;;;;;;;15.43;4.53;;;;;;;;;;4971789;28;20240;-59
2022/03/28 13:56:21;;;;;;;7.87;5.10;;;;;;;;;;4971395;28;20197;-59
2022/03/28 13:58:48;;;;;;;7.83;3.90;;;;;;;;;;4971737;28;20240;-60
2022/03/28 14:01:15;;;;;;;9.40;4.10;;;;;;;;;;4986221;28;20190;-59
2022/03/28 14:04:00;;;;;;;7.93;3.97;;;;;;;;;;4971377;28;20177;-59
2022/03/28 14:06:27;;;;;;;11.33;3.67;;;;;;;;;;4971549;28;20209;-59
2022/03/28 14:08:53;;;;;;;6.60;3.20;;;;;;;;;;4986268;28;20312;-59
2022/03/28 14:11:23;;;;;;;8.77;4.63;;;;;;;;;;4971359;28;20196;-59
2022/03/28 14:13:50;;;;;;;12.07;4.33;;;;;;;;;;4971361;28;20630;-59
2022/03/28 14:16:19;;;;;;;11.27;5.17;;;;;;;;;;4971280;28;20211;-59
2022/03/28 14:18:47;;;;;;;8.10;4.50;;;;;;;;;;4971278;28;20193;-59
2022/03/28 14:21:15;;;;;;;8.60;3.60;;;;;;;;;;4985946;28;20190;-60
2022/03/28 14:23:42;;;;;;;8.67;5.30;;;;;;;;;;4970739;28;20227;-60
2022/03/28 14:26:09;;;;;;;9.00;4.17;;;;;;;;;;4971100;28;20795;-60
2022/03/28 14:28:36;;;;;;;10.23;5.63;;;;;;;;;;4971061;28;20193;-59
2022/03/28 14:31:20;;;;;;;11.90;6.10;;;;;;;;;;4970822;28;20182;-59
2022/03/28 14:33:47;;;;;;;13.70;5.60;;;;;;;;;;4970939;28;20184;-59
2022/03/28 14:36:14;;;;;;;20.03;6.10;;;;;;;;;;4970864;28;20531;-59
2022/03/28 14:38:40;;;;;;;12.27;4.43;;;;;;;;;;4970434;28;20243;-59
2022/03/28 14:41:07;;;;;;;12.63;5.73;;;;;;;;;;4951298;28;20233;-59
2022/03/28 14:43:51;;;;;;;7.83;3.90;;;;;;;;;;4950209;28;20527;-60
2022/03/28 14:49:30;;;;;;;11.07;4.83;;;;;;;;;;4951382;28;20229;-60
2022/03/28 14:51:57;;;;;;;9.43;5.63;;;;;;;;;;4950123;28;20749;-60
2022/03/28 14:54:41;;;;;;;11.50;5.83;;;;;;;;;;4966715;28;20236;-60
2022/03/28 14:57:13;;;;;;;5.80;3.90;;;;;;;;;;4970445;28;20190;-60
2022/03/28 14:59:40;;;;;;;20.30;6.20;;;;;;;;;;4970424;28;20224;-60
2022/03/28 15:02:07;;;;;;;12.17;5.10;;;;;;;;;;4970112;28;20264;-60
2022/03/28 15:04:41;;;;;;;21.17;6.10;;;;;;;;;;5065115;28;20618;-59
2022/03/28 15:07:08;;;;;;;15.60;5.73;;;;;;;;;;5065436;28;20714;-59
2022/03/28 15:09:37;;;;;;;7.77;3.97;;;;;;;;;;5057611;28;20269;-59
2022/03/28 15:12:04;;;;;;;10.23;6.40;;;;;;;;;;5044874;28;20233;-59
2022/03/28 15:14:48;;;;;;;12.07;6.43;;;;;;;;;;5045587;28;20293;-59
2022/03/28 15:17:15;;;;;;;13.50;7.00;;;;;;;;;;5045226;28;20553;-58
2022/03/28 15:19:59;;;;;;;14.23;5.13;;;;;;;;;;5045208;28;20178;-59
2022/03/28 15:22:26;;;;;;;21.30;5.80;;;;;;;;;;5044869;28;20195;-58
2022/03/28 15:24:53;;;;;;;13.43;6.70;;;;;;;;;;5045918;28;20203;-58
2022/03/28 15:27:19;;;;;;;14.03;6.97;;;;;;;;;;5045333;28;20429;-58
2022/03/28 15:29:46;;;;;;;14.47;7.37;;;;;;;;;;5044643;28;20183;-58